LFSB/MLH METAR and TAF weather

Enter ICAO airport designator
Station Type Date Time Source
LFSB METAR 2021/09/23 17:00 UTC NOAA

LFSB 231700Z 28003KT CAVOK 21/12 Q1020 NOSIG


Station Type Date Time Source
LFSB Decoded METAR 2021/09/23 17:00 UTC NOAA

Bale-Mulhouse, France (LFSB) 47-36N 007-31E 271M
Sep 23, 2021 - 01:00 PM EDT / 2021.09.23 1700 UTC
Wind: from the W (280 degrees) at 3 MPH (3 KT):0
Visibility: greater than 7 mile(s):0
Temperature: 69 F (21 C)
Dew Point: 53 F (12 C)
Relative Humidity: 56%
Pressure (altimeter): 30.12 in. Hg (1020 hPa)
ob: LFSB 231700Z 28003KT CAVOK 21/12 Q1020 NOSIG
cycle: 17

Station Type Date Time Source
LFSB TAF 2021/09/23 12:42 UTC NOAA

TAF LFSB 231100Z 2312/2412 27005KT CAVOK PROB40
TEMPO 2402/2406 3000 MIFG

Example: see airport list